Time;durP1;ratioP1;P1;durP2;ratioP2;P2;SDS_P1;SDS_P2;PMS_P1;PMS_P2;Temp;Humidity;BMP_temperature;BMP_pressure;BME280_temperature;BME280_humidity;BME280_pressure;Samples;Min_cycle;Max_cycle;Signal;HPM_P1;HPM_P2
2022/06/20 00:00:14;;;;;;;14.90;9.77;;;21.00;99.90;;;;;;5063580;28;20064;-75
2022/06/20 00:02:50;;;;;;;13.98;9.57;;;20.90;99.90;;;;;;5064473;28;20037;-75
2022/06/20 00:05:21;;;;;;;14.80;9.18;;;21.00;99.90;;;;;;5061890;28;20332;-75
2022/06/20 00:07:48;;;;;;;14.10;10.13;;;21.00;99.90;;;;;;5058692;28;20045;-75
2022/06/20 00:10:16;;;;;;;14.52;9.55;;;20.90;99.90;;;;;;5074794;28;20212;-75
2022/06/20 00:12:42;;;;;;;13.57;9.65;;;21.00;99.90;;;;;;5060684;28;20051;-76
2022/06/20 00:15:22;;;;;;;18.90;12.05;;;20.90;99.90;;;;;;5061714;28;20131;-76
2022/06/20 00:17:48;;;;;;;14.60;10.45;;;20.90;99.90;;;;;;5061601;28;20612;-76
2022/06/20 00:20:15;;;;;;;14.52;9.65;;;20.90;99.90;;;;;;5064079;28;20044;-76
2022/06/20 00:22:40;;;;;;;15.55;10.30;;;20.90;99.90;;;;;;5061353;28;20098;-76
2022/06/20 00:25:07;;;;;;;14.13;8.77;;;20.90;99.90;;;;;;5058791;28;20310;-77
2022/06/20 00:27:33;;;;;;;17.30;10.30;;;20.80;99.90;;;;;;5059141;28;20033;-76
2022/06/20 00:29:59;;;;;;;16.33;11.10;;;20.70;99.90;;;;;;5061975;28;20631;-77
2022/06/20 00:32:24;;;;;;;12.90;10.43;;;20.60;99.90;;;;;;5060431;28;20071;-76
2022/06/20 00:34:50;;;;;;;16.35;9.63;;;20.60;99.90;;;;;;5060103;28;20530;-76
2022/06/20 00:37:20;;;;;;;14.98;10.63;;;20.60;99.90;;;;;;5060310;28;20048;-77
2022/06/20 00:39:48;;;;;;;14.10;8.82;;;20.60;99.90;;;;;;5062534;28;20122;-77
2022/06/20 00:42:14;;;;;;;12.85;8.45;;;20.60;99.90;;;;;;5060347;28;20049;-77
2022/06/20 00:44:50;;;;;;;12.15;9.73;;;20.60;99.90;;;;;;5059981;28;20037;-76
2022/06/20 00:47:21;;;;;;;14.50;8.80;;;20.60;99.90;;;;;;5059981;28;20132;-77
2022/06/20 00:50:00;;;;;;;15.18;10.02;;;20.50;99.90;;;;;;5060738;28;20048;-77
2022/06/20 00:52:33;;;;;;;15.93;10.90;;;20.50;99.90;;;;;;5060251;28;20091;-77
2022/06/20 00:55:29;;;;;;;15.27;11.15;;;20.50;99.90;;;;;;5058886;28;21009;-77
2022/06/20 00:58:09;;;;;;;17.00;12.75;;;20.50;99.90;;;;;;5056315;28;20056;-77
2022/06/20 01:00:38;;;;;;;16.30;11.73;;;20.50;99.90;;;;;;5061007;28;20052;-76
2022/06/20 01:03:11;;;;;;;18.90;13.10;;;20.40;99.90;;;;;;5075493;28;20052;-75
2022/06/20 01:06:08;;;;;;;16.38;12.68;;;20.50;99.90;;;;;;5059894;28;20051;-76
2022/06/20 01:08:41;;;;;;;17.85;13.18;;;20.50;99.90;;;;;;5060789;28;20037;-75
2022/06/20 01:11:17;;;;;;;22.63;13.90;;;20.50;99.90;;;;;;5058194;28;20043;-77
2022/06/20 01:13:43;;;;;;;19.10;13.15;;;20.50;99.90;;;;;;5056270;28;20092;-77
2022/06/20 01:16:15;;;;;;;21.38;16.02;;;20.50;99.90;;;;;;5061468;28;20612;-76
2022/06/20 01:18:43;;;;;;;20.42;15.10;;;20.50;99.90;;;;;;5062008;28;20044;-75
2022/06/20 01:21:19;;;;;;;22.95;15.27;;;20.50;99.90;;;;;;5060501;28;20544;-75
2022/06/20 01:23:59;;;;;;;22.95;17.17;;;20.50;99.90;;;;;;5061759;28;20064;-76
2022/06/20 01:26:46;;;;;;;19.70;14.45;;;20.50;99.90;;;;;;5060785;28;20180;-75
2022/06/20 01:29:12;;;;;;;22.02;16.00;;;20.50;99.90;;;;;;5058934;28;20045;-76
2022/06/20 01:31:43;;;;;;;24.95;17.77;;;20.50;99.90;;;;;;5060816;28;20498;-76
2022/06/20 01:34:11;;;;;;;28.27;14.90;;;20.50;99.90;;;;;;5060680;28;20910;-76
2022/06/20 01:39:28;;;;;;;21.77;14.95;;;20.50;99.90;;;;;;5062249;28;20548;-75
2022/06/20 01:44:42;;;;;;;22.20;15.82;;;20.60;99.90;;;;;;5058157;28;20494;-76
2022/06/20 01:47:08;;;;;;;23.27;15.82;;;20.50;99.90;;;;;;5058335;28;20143;-75
2022/06/20 01:49:35;;;;;;;26.17;17.23;;;20.60;99.90;;;;;;5056195;28;20048;-75
2022/06/20 01:52:07;;;;;;;24.38;16.95;;;20.60;99.90;;;;;;5062169;28;20063;-75
2022/06/20 01:54:36;;;;;;;;;;;20.60;99.90;;;;;;5058598;28;20040;-76
2022/06/20 01:57:05;;;;;;;23.25;14.68;;;20.60;99.90;;;;;;5060166;28;20406;-76
2022/06/20 01:59:37;;;;;;;24.85;16.15;;;20.50;99.90;;;;;;5059924;28;20045;-75
2022/06/20 02:02:03;;;;;;;27.95;16.23;;;20.50;99.90;;;;;;5058489;28;20135;-76
2022/06/20 02:04:33;;;;;;;25.08;16.35;;;20.50;99.90;;;;;;5059409;28;20045;-76
2022/06/20 02:07:06;;;;;;;27.92;17.33;;;20.50;99.90;;;;;;5061230;28;20048;-76
2022/06/20 02:09:32;;;;;;;22.90;16.13;;;20.40;99.90;;;;;;5062001;28;20132;-76
2022/06/20 02:11:59;;;;;;;23.17;16.42;;;20.40;99.90;;;;;;5055369;28;20100;-76
2022/06/20 02:14:39;;;;;;;23.23;15.50;;;20.40;99.90;;;;;;5060739;28;20033;-76
2022/06/20 02:17:25;;;;;;;26.48;16.13;;;20.40;99.90;;;;;;5058065;28;20044;-74
2022/06/20 02:19:54;;;;;;;24.20;16.85;;;20.30;99.90;;;;;;5060968;28;20052;-75
2022/06/20 02:22:22;;;;;;;23.58;15.68;;;20.30;99.90;;;;;;5058656;28;20118;-76
2022/06/20 02:24:53;;;;;;;24.58;16.08;;;20.20;99.90;;;;;;5061105;28;20051;-75
2022/06/20 02:27:35;;;;;;;25.50;15.43;;;20.30;99.90;;;;;;5043168;28;20536;-76
2022/06/20 02:30:01;;;;;;;24.77;15.90;;;20.30;99.90;;;;;;5057456;28;20048;-76
2022/06/20 02:32:33;;;;;;;22.65;16.42;;;20.30;99.90;;;;;;5058972;28;20033;-76
2022/06/20 02:34:59;;;;;;;22.73;15.38;;;20.30;99.90;;;;;;5075278;28;21516;-76
2022/06/20 02:37:26;;;;;;;23.60;14.07;;;20.40;99.90;;;;;;5054647;28;20075;-76
2022/06/20 02:39:59;;;;;;;23.85;15.20;;;20.30;99.90;;;;;;5059597;28;20544;-75
2022/06/20 02:42:48;;;;;;;24.23;15.18;;;20.40;99.90;;;;;;5079015;28;20075;-75
2022/06/20 02:45:15;;;;;;;22.73;14.45;;;20.30;99.90;;;;;;5061048;28;20056;-75
2022/06/20 02:47:45;;;;;;;29.40;16.60;;;20.40;99.90;;;;;;5062856;28;20037;-76
2022/06/20 02:50:13;;;;;;;24.27;15.57;;;20.40;99.90;;;;;;5062967;28;20571;-76
2022/06/20 02:52:46;;;;;;;22.48;13.52;;;20.40;99.90;;;;;;5061876;28;20045;-77
2022/06/20 02:55:16;;;;;;;24.10;15.23;;;20.30;99.90;;;;;;5063559;28;20041;-77
2022/06/20 02:57:45;;;;;;;25.73;15.85;;;20.30;99.90;;;;;;5061469;28;20482;-76
2022/06/20 03:00:26;;;;;;;28.08;16.38;;;20.30;99.90;;;;;;5061074;28;20808;-76
2022/06/20 03:02:58;;;;;;;24.52;15.85;;;20.30;99.90;;;;;;5064112;28;20040;-76
2022/06/20 03:05:25;;;;;;;26.45;16.13;;;20.20;99.90;;;;;;5078182;28;20611;-76
2022/06/20 03:07:52;;;;;;;29.30;17.38;;;20.20;99.90;;;;;;5060893;28;20044;-77
2022/06/20 03:10:28;;;;;;;26.58;16.88;;;20.10;99.90;;;;;;5074851;27;20136;-77
2022/06/20 03:12:56;;;;;;;24.50;15.07;;;20.00;99.90;;;;;;5061285;28;20126;-77
2022/06/20 03:15:22;;;;;;;24.85;16.35;;;20.00;99.90;;;;;;5076098;27;20044;-76
2022/06/20 03:17:50;;;;;;;24.77;14.20;;;20.00;99.90;;;;;;5060999;28;20214;-76
2022/06/20 03:20:19;;;;;;;25.02;16.98;;;19.90;99.90;;;;;;5062767;28;20522;-77
2022/06/20 03:22:53;;;;;;;27.23;17.02;;;19.90;99.90;;;;;;5064092;28;20322;-75
2022/06/20 03:25:19;;;;;;;28.15;16.38;;;19.90;99.90;;;;;;5077520;28;20083;-77
2022/06/20 03:27:45;;;;;;;25.33;15.57;;;19.90;99.90;;;;;;5060638;28;20041;-76
2022/06/20 03:30:33;;;;;;;28.33;18.65;;;19.80;99.90;;;;;;5059139;28;20045;-76
2022/06/20 03:33:03;;;;;;;28.13;16.27;;;19.80;99.90;;;;;;5060985;28;20045;-76
2022/06/20 03:35:31;;;;;;;31.55;16.65;;;19.80;99.90;;;;;;5060209;28;20579;-75
2022/06/20 03:38:03;;;;;;;26.75;17.33;;;19.80;99.90;;;;;;5060536;28;20112;-76
2022/06/20 03:40:30;;;;;;;24.67;16.55;;;19.80;99.90;;;;;;5063504;28;20032;-76
2022/06/20 03:43:00;;;;;;;25.00;15.55;;;19.80;99.90;;;;;;5060001;28;20147;-75
2022/06/20 03:45:30;;;;;;;31.55;16.90;;;19.80;99.90;;;;;;5062820;28;20033;-76
2022/06/20 03:48:06;;;;;;;40.60;18.92;;;19.80;99.90;;;;;;5061037;28;20064;-77
2022/06/20 03:50:35;;;;;;;25.15;16.15;;;19.70;99.90;;;;;;5060089;28;20047;-76
2022/06/20 03:53:43;;;;;;;28.63;16.33;;;19.70;99.90;;;;;;5064080;28;20171;-76
2022/06/20 03:56:20;;;;;;;31.48;17.17;;;19.70;99.90;;;;;;5029231;28;20128;-77
2022/06/20 03:59:20;;;;;;;30.80;17.45;;;19.70;99.90;;;;;;5062916;28;20546;-76
2022/06/20 04:01:57;;;;;;;25.92;17.15;;;19.80;99.90;;;;;;5061921;28;20037;-76
2022/06/20 04:04:40;;;;;;;26.42;16.60;;;19.60;99.90;;;;;;5077362;28;20565;-76
2022/06/20 04:07:17;;;;;;;33.90;16.75;;;19.50;99.90;;;;;;5060283;28;20048;-76
2022/06/20 04:12:54;;;;;;;26.63;17.27;;;19.60;99.90;;;;;;5061918;28;20048;-77
2022/06/20 04:15:33;;;;;;;30.83;18.23;;;19.60;99.90;;;;;;5060196;28;20036;-76
2022/06/20 04:18:27;;;;;;;30.35;18.98;;;19.50;99.90;;;;;;5056884;28;20079;-77
2022/06/20 04:21:05;;;;;;;35.08;19.95;;;19.50;99.90;;;;;;5061176;28;20069;-77
2022/06/20 04:23:34;;;;;;;30.00;18.17;;;19.40;99.90;;;;;;5062052;28;20099;-76
2022/06/20 04:26:29;;;;;;;41.85;18.15;;;19.40;99.90;;;;;;5059862;28;20036;-76
2022/06/20 04:29:19;;;;;;;35.40;16.77;;;19.30;99.90;;;;;;5056811;28;20108;-76
2022/06/20 04:32:20;;;;;;;32.80;17.15;;;19.20;99.90;;;;;;5060482;28;20041;-76
2022/06/20 04:35:18;;;;;;;32.25;18.80;;;19.30;99.90;;;;;;5061958;28;20085;-75
2022/06/20 04:38:03;;;;;;;34.00;18.15;;;19.40;99.90;;;;;;5059201;28;20072;-76
2022/06/20 04:40:36;;;;;;;29.33;18.35;;;19.30;99.90;;;;;;5061751;28;20051;-76
2022/06/20 04:43:26;;;;;;;31.92;17.83;;;19.30;99.90;;;;;;5042785;28;21916;-76
2022/06/20 04:46:24;;;;;;;26.98;17.98;;;19.30;99.90;;;;;;5055436;28;20752;-75
2022/06/20 04:48:50;;;;;;;36.22;18.55;;;19.20;99.90;;;;;;5063204;28;20041;-75
2022/06/20 04:51:30;;;;;;;38.10;20.00;;;19.20;99.90;;;;;;5059166;28;20135;-76
2022/06/20 04:53:56;;;;;;;35.22;16.98;;;19.20;99.90;;;;;;5060900;28;20588;-77
2022/06/20 04:56:27;;;;;;;31.38;18.77;;;19.20;99.90;;;;;;5058544;28;20492;-76
2022/06/20 04:58:58;;;;;;;31.95;17.20;;;19.30;99.90;;;;;;5061469;28;20432;-76
2022/06/20 05:01:26;;;;;;;28.30;16.85;;;19.30;99.90;;;;;;5060025;28;20075;-75
2022/06/20 05:04:03;;;;;;;40.05;18.73;;;19.20;99.90;;;;;;5057080;28;20119;-76
2022/06/20 05:06:31;;;;;;;31.58;20.38;;;19.20;99.90;;;;;;5061182;28;20863;-76
2022/06/20 05:09:15;;;;;;;28.83;17.70;;;19.10;99.90;;;;;;5059118;28;20036;-80
2022/06/20 05:11:58;;;;;;;35.67;19.85;;;19.10;99.90;;;;;;5059465;28;20186;-79
2022/06/20 05:14:39;;;;;;;25.00;15.82;;;19.00;99.90;;;;;;5062801;28;20534;-78
2022/06/20 05:17:16;;;;;;;27.45;16.48;;;18.90;99.90;;;;;;5057728;28;20050;-76
2022/06/20 05:19:45;;;;;;;35.80;19.98;;;18.90;99.90;;;;;;5056532;28;20037;-79
2022/06/20 05:22:26;;;;;;;30.70;17.60;;;18.90;99.90;;;;;;5060409;28;20049;-77
2022/06/20 05:24:54;;;;;;;31.90;17.27;;;19.00;99.90;;;;;;5058300;28;20045;-77
2022/06/20 05:27:28;;;;;;;29.40;18.40;;;19.00;99.90;;;;;;5061174;28;20381;-76
2022/06/20 05:30:03;;;;;;;30.15;18.75;;;19.00;99.90;;;;;;5063752;28;20041;-78
2022/06/20 05:32:40;;;;;;;37.35;18.27;;;19.20;99.90;;;;;;5061553;28;20471;-76
2022/06/20 05:35:22;;;;;;;34.25;19.08;;;19.20;99.90;;;;;;5057555;28;20067;-76
2022/06/20 05:38:00;;;;;;;30.65;17.48;;;19.20;99.90;;;;;;5064408;28;20065;-75
2022/06/20 05:40:35;;;;;;;28.88;15.80;;;19.20;99.90;;;;;;5045543;28;20044;-75
2022/06/20 05:43:01;;;;;;;28.20;17.52;;;19.20;99.90;;;;;;5059129;28;20053;-75
2022/06/20 05:45:29;;;;;;;27.08;15.73;;;19.20;99.90;;;;;;5060011;28;20527;-75
2022/06/20 05:47:59;;;;;;;31.92;18.17;;;19.20;99.90;;;;;;5063597;28;20150;-75
2022/06/20 05:50:38;;;;;;;30.02;16.48;;;19.20;99.90;;;;;;5078189;28;20047;-75
2022/06/20 05:53:09;;;;;;;26.88;15.73;;;19.20;99.90;;;;;;5061451;28;20641;-75
2022/06/20 05:55:47;;;;;;;35.45;17.98;;;19.20;99.90;;;;;;5061927;28;20120;-77
2022/06/20 05:58:31;;;;;;;31.90;18.88;;;19.20;99.90;;;;;;5061811;28;20053;-74
2022/06/20 06:01:02;;;;;;;25.25;15.75;;;19.20;99.90;;;;;;5059550;28;20510;-75
2022/06/20 06:04:19;;;;;;;30.05;17.48;;;19.20;99.90;;;;;;5057053;28;20148;-75
2022/06/20 06:06:53;;;;;;;25.58;14.18;;;19.20;99.90;;;;;;5015148;28;20243;-75
2022/06/20 06:09:53;;;;;;;29.05;16.58;;;19.20;99.90;;;;;;5062578;28;20091;-75
2022/06/20 06:12:35;;;;;;;30.50;16.05;;;19.20;99.90;;;;;;5035345;28;20045;-75
2022/06/20 06:15:30;;;;;;;27.55;17.30;;;19.10;99.90;;;;;;5061597;28;20116;-75
2022/06/20 06:18:01;;;;;;;28.73;15.73;;;19.20;99.90;;;;;;5063367;28;20984;-75
2022/06/20 06:20:30;;;;;;;28.80;14.50;;;19.20;99.90;;;;;;5047060;28;20045;-74
2022/06/20 06:23:00;;;;;;;33.38;16.08;;;19.20;99.90;;;;;;5061299;28;20554;-74
2022/06/20 06:25:31;;;;;;;30.33;17.90;;;19.20;99.90;;;;;;5064025;28;20055;-77
2022/06/20 06:28:16;;;;;;;29.33;16.00;;;19.20;99.90;;;;;;5063128;28;20052;-77
2022/06/20 06:30:52;;;;;;;28.30;16.50;;;19.00;99.90;;;;;;5060969;28;20040;-76
2022/06/20 06:33:32;;;;;;;31.77;15.80;;;19.10;99.90;;;;;;5076824;28;20072;-76
2022/06/20 06:36:06;;;;;;;27.75;15.60;;;19.00;99.90;;;;;;5065619;28;20557;-76
2022/06/20 06:38:39;;;;;;;29.05;14.25;;;19.00;99.90;;;;;;5065303;28;20080;-77
2022/06/20 06:41:14;;;;;;;32.67;17.65;;;19.00;99.90;;;;;;5079066;28;20040;-77
2022/06/20 06:43:44;;;;;;;26.48;14.02;;;19.00;99.90;;;;;;5061523;28;20053;-77
2022/06/20 06:46:22;;;;;;;28.63;17.35;;;18.90;99.90;;;;;;5062336;28;20093;-77
2022/06/20 06:49:00;;;;;;;30.80;16.63;;;18.90;99.90;;;;;;5063212;28;20049;-76
2022/06/20 06:51:56;;;;;;;33.25;15.43;;;18.90;99.90;;;;;;5061295;28;20471;-76
2022/06/20 06:54:43;;;;;;;28.30;16.13;;;18.90;99.90;;;;;;5065376;28;20036;-76
2022/06/20 06:57:35;;;;;;;41.63;17.75;;;18.80;99.90;;;;;;5063794;28;20037;-77
2022/06/20 07:00:04;;;;;;;27.33;14.60;;;18.80;99.90;;;;;;5042930;28;20152;-77
2022/06/20 07:02:38;;;;;;;23.30;15.38;;;18.80;99.90;;;;;;5063826;28;20586;-77
2022/06/20 07:05:18;;;;;;;24.77;15.15;;;18.80;99.90;;;;;;5046784;28;20040;-77
2022/06/20 07:07:54;;;;;;;28.02;16.65;;;18.70;99.90;;;;;;5062472;28;20511;-76
2022/06/20 07:10:26;;;;;;;27.20;16.17;;;18.70;99.90;;;;;;5066725;28;20114;-76
2022/06/20 07:12:58;;;;;;;30.05;14.88;;;18.80;99.90;;;;;;5065619;28;20620;-77
2022/06/20 07:15:26;;;;;;;27.13;15.27;;;18.90;99.90;;;;;;5082903;28;20158;-76
2022/06/20 07:17:54;;;;;;;20.77;13.52;;;19.00;99.90;;;;;;5065223;28;20118;-76
2022/06/20 07:20:24;;;;;;;24.88;14.75;;;19.10;99.90;;;;;;5064833;28;20052;-76
2022/06/20 07:22:51;;;;;;;23.05;13.25;;;19.00;99.90;;;;;;5066357;28;20036;-76
2022/06/20 07:25:24;;;;;;;20.48;14.20;;;19.10;99.90;;;;;;5066480;28;20056;-77
2022/06/20 07:28:19;;;;;;;19.08;12.20;;;19.00;99.90;;;;;;5064747;28;20041;-76
2022/06/20 07:30:52;;;;;;;21.33;13.35;;;19.00;99.90;;;;;;5010986;28;20498;-77
2022/06/20 07:33:27;;;;;;;21.42;10.88;;;19.10;99.90;;;;;;5066141;28;20058;-76
2022/06/20 07:35:56;;;;;;;17.67;10.85;;;19.10;99.90;;;;;;5065673;28;20139;-77
2022/06/20 07:38:50;;;;;;;22.55;13.63;;;19.10;99.90;;;;;;5065564;28;20064;-76
2022/06/20 07:41:29;;;;;;;17.23;10.57;;;19.10;99.90;;;;;;5061525;28;20690;-76
2022/06/20 07:44:00;;;;;;;19.20;10.93;;;19.20;99.90;;;;;;5066680;28;20045;-76
2022/06/20 07:46:44;;;;;;;21.55;10.90;;;19.10;99.90;;;;;;5066457;28;20036;-76
2022/06/20 07:49:22;;;;;;;18.05;11.93;;;19.20;99.90;;;;;;5064240;28;20044;-76
2022/06/20 07:51:53;;;;;;;15.27;10.15;;;19.30;99.90;;;;;;5064110;28;20549;-76
2022/06/20 07:54:27;;;;;;;17.20;10.20;;;19.40;99.90;;;;;;5065312;28;20037;-76
2022/06/20 07:57:28;;;;;;;15.55;9.25;;;19.50;99.90;;;;;;5063333;28;20049;-77
2022/06/20 08:00:09;;;;;;;13.00;8.75;;;19.60;99.90;;;;;;5055590;28;20048;-77
2022/06/20 08:02:44;;;;;;;16.13;10.88;;;19.70;99.90;;;;;;5064110;28;20041;-76
2022/06/20 08:05:32;;;;;;;15.30;9.50;;;19.70;99.90;;;;;;5064140;28;20423;-77
2022/06/20 08:08:00;;;;;;;14.45;10.23;;;19.70;99.90;;;;;;5063958;28;20028;-76
2022/06/20 08:10:31;;;;;;;18.27;9.43;;;19.60;99.90;;;;;;5079337;28;20205;-76
2022/06/20 08:13:12;;;;;;;15.13;10.20;;;19.60;99.90;;;;;;5065212;28;20043;-77
2022/06/20 08:15:59;;;;;;;14.50;9.35;;;19.70;99.90;;;;;;5065881;28;20036;-77
2022/06/20 08:18:27;;;;;;;15.98;10.63;;;19.70;99.90;;;;;;5064308;28;20048;-77
2022/06/20 08:20:58;;;;;;;13.77;8.90;;;19.60;99.90;;;;;;5064503;28;20095;-77
2022/06/20 08:23:40;;;;;;;13.45;8.93;;;19.70;99.90;;;;;;5063845;28;20060;-77
2022/06/20 08:26:09;;;;;;;12.85;8.18;;;19.70;99.90;;;;;;5048164;28;20047;-77
2022/06/20 08:28:59;;;;;;;12.82;8.02;;;19.80;99.90;;;;;;5063160;28;20049;-76
2022/06/20 08:31:30;;;;;;;14.45;8.23;;;19.90;99.90;;;;;;5063486;28;20078;-77
2022/06/20 08:34:17;;;;;;;13.50;7.53;;;19.80;99.90;;;;;;5064524;28;20407;-76
2022/06/20 08:37:08;;;;;;;13.95;8.27;;;19.80;99.90;;;;;;5062960;28;20052;-77
2022/06/20 08:39:45;;;;;;;14.38;8.90;;;19.70;99.90;;;;;;5062887;28;20058;-77
2022/06/20 08:42:20;;;;;;;13.20;6.78;;;19.70;99.90;;;;;;5061567;28;20049;-77
2022/06/20 08:45:03;;;;;;;13.35;6.65;;;19.70;99.90;;;;;;5066083;28;20193;-77
2022/06/20 08:48:08;;;;;;;11.10;7.55;;;19.70;99.90;;;;;;5063399;28;20102;-77
2022/06/20 08:51:11;;;;;;;11.20;6.78;;;19.70;99.90;;;;;;5063877;28;20106;-77
2022/06/20 08:54:14;;;;;;;9.55;5.57;;;19.50;99.90;;;;;;5066635;28;20045;-77
2022/06/20 08:56:54;;;;;;;10.82;5.53;;;19.50;99.90;;;;;;5064651;28;20892;-77
2022/06/20 08:59:52;;;;;;;10.18;5.85;;;19.40;99.90;;;;;;5064347;28;20049;-76
2022/06/20 09:03:13;;;;;;;14.15;5.78;;;19.40;99.90;;;;;;5062214;28;20040;-76
2022/06/20 09:06:07;;;;;;;9.55;5.03;;;19.20;99.90;;;;;;5040442;28;20073;-77
2022/06/20 09:08:52;;;;;;;9.05;5.60;;;19.20;99.90;;;;;;5062276;28;20144;-77
2022/06/20 09:11:51;;;;;;;8.93;5.05;;;19.30;99.90;;;;;;5062601;28;20037;-77
2022/06/20 09:15:04;;;;;;;8.30;4.82;;;19.50;99.90;;;;;;5063987;28;20558;-77
2022/06/20 09:17:54;;;;;;;8.77;5.00;;;19.60;99.90;;;;;;5018992;28;20609;-77
2022/06/20 09:20:39;;;;;;;7.63;5.03;;;19.80;99.90;;;;;;5062539;28;20045;-77
2022/06/20 09:23:11;;;;;;;9.70;5.22;;;19.90;99.90;;;;;;5062105;28;20475;-77
2022/06/20 09:25:45;;;;;;;11.70;4.90;;;20.10;99.90;;;;;;5061607;28;20040;-77
2022/06/20 09:28:30;;;;;;;8.93;5.60;;;20.20;99.90;;;;;;5062418;28;20558;-77
2022/06/20 09:31:22;;;;;;;9.05;5.72;;;20.40;99.90;;;;;;5060921;28;20127;-76
2022/06/20 09:33:56;;;;;;;9.10;6.10;;;20.40;99.90;;;;;;5036546;28;20103;-76
2022/06/20 09:36:41;;;;;;;12.52;5.20;;;20.20;99.90;;;;;;5078863;28;20106;-77
2022/06/20 09:39:32;;;;;;;8.90;5.28;;;20.10;99.90;;;;;;5063075;28;20044;-77
2022/06/20 09:41:58;;;;;;;11.47;6.23;;;20.00;99.90;;;;;;5063958;28;20053;-76
2022/06/20 09:44:33;;;;;;;14.18;5.75;;;19.90;99.90;;;;;;5061504;28;20057;-77
2022/06/20 09:47:05;;;;;;;13.90;6.95;;;19.80;99.90;;;;;;5063631;28;20036;-76
2022/06/20 09:49:36;;;;;;;8.73;5.78;;;19.80;99.90;;;;;;5062987;28;20051;-76
2022/06/20 09:52:15;;;;;;;;;;;19.80;99.90;;;;;;5066558;28;20041;-76
2022/06/20 09:55:02;;;;;;;9.43;6.18;;;19.90;99.90;;;;;;5066144;28;19920;-77
2022/06/20 09:57:44;;;;;;;8.85;5.90;;;19.80;99.90;;;;;;5066292;28;20530;-76
2022/06/20 10:00:24;;;;;;;13.65;6.28;;;19.80;99.90;;;;;;5066239;28;20175;-77
2022/06/20 10:02:56;;;;;;;13.57;6.82;;;19.90;99.90;;;;;;5065700;28;20583;-77
2022/06/20 10:05:32;;;;;;;10.77;5.50;;;19.90;99.90;;;;;;5066222;28;20068;-77
2022/06/20 10:08:20;;;;;;;9.52;6.05;;;19.90;99.90;;;;;;5066499;28;20044;-76
2022/06/20 10:10:57;;;;;;;13.27;5.82;;;20.00;99.90;;;;;;5067937;28;20268;-77
2022/06/20 10:13:42;;;;;;;9.82;6.65;;;20.10;99.90;;;;;;5065240;28;20098;-77
2022/06/20 10:16:21;;;;;;;14.45;6.72;;;20.20;99.90;;;;;;5066942;28;20526;-77
2022/06/20 10:18:47;;;;;;;9.90;6.22;;;20.30;99.90;;;;;;5067199;28;20040;-77
2022/06/20 10:21:23;;;;;;;14.73;6.80;;;20.30;99.90;;;;;;5067062;28;20438;-77
2022/06/20 10:23:58;;;;;;;11.55;7.72;;;20.40;99.90;;;;;;5065100;28;20045;-77
2022/06/20 10:27:09;;;;;;;10.45;6.88;;;20.50;99.90;;;;;;5064579;28;20517;-77
2022/06/20 10:29:57;;;;;;;11.90;6.35;;;20.60;99.90;;;;;;5064368;28;20470;-77
2022/06/20 10:32:29;;;;;;;11.05;7.20;;;20.70;99.90;;;;;;5064608;28;20053;-77
2022/06/20 10:35:18;;;;;;;19.23;6.88;;;20.80;99.90;;;;;;5067887;28;20082;-77
2022/06/20 10:38:07;;;;;;;14.05;5.88;;;21.10;99.90;;;;;;5065371;28;20037;-77
2022/06/20 10:40:49;;;;;;;9.30;6.63;;;21.10;99.90;;;;;;5065736;28;20040;-77
2022/06/20 10:43:34;;;;;;;13.27;7.13;;;21.10;99.90;;;;;;5062919;28;20059;-77
2022/06/20 10:46:04;;;;;;;9.90;5.88;;;21.10;99.90;;;;;;5065034;28;20896;-77
2022/06/20 10:48:42;;;;;;;13.30;7.78;;;21.10;99.90;;;;;;5064954;28;20779;-77
2022/06/20 10:51:19;;;;;;;12.20;7.18;;;21.30;99.90;;;;;;5065755;28;20032;-77
2022/06/20 10:54:03;;;;;;;8.95;5.75;;;21.50;99.90;;;;;;5048107;28;20041;-77
2022/06/20 10:56:35;;;;;;;12.55;6.82;;;21.80;99.90;;;;;;5065422;28;20045;-77
2022/06/20 10:59:22;;;;;;;9.15;5.60;;;22.10;99.90;;;;;;5064293;28;20099;-77
2022/06/20 11:02:34;;;;;;;16.23;7.57;;;22.20;99.90;;;;;;5062739;28;20098;-76
2022/06/20 11:05:08;;;;;;;6.18;5.35;;;22.60;99.90;;;;;;5066176;28;20138;-77
2022/06/20 11:07:50;;;;;;;9.82;5.43;;;22.60;99.90;;;;;;5065144;28;20049;-77
2022/06/20 11:10:46;;;;;;;12.05;6.80;;;22.60;99.90;;;;;;5080996;27;20472;-77
2022/06/20 11:13:12;;;;;;;10.52;5.80;;;22.40;99.90;;;;;;5063416;28;20048;-77
2022/06/20 11:16:06;;;;;;;11.10;5.75;;;22.20;99.90;;;;;;5066281;28;20041;-77
2022/06/20 11:18:35;;;;;;;10.27;5.57;;;22.20;99.90;;;;;;5064141;28;20841;-77
2022/06/20 11:21:39;;;;;;;12.15;6.57;;;22.30;99.90;;;;;;5063744;28;20040;-77
2022/06/20 11:24:30;;;;;;;12.73;6.30;;;22.30;99.90;;;;;;5065796;28;20033;-77
2022/06/20 11:26:58;;;;;;;10.82;5.72;;;22.50;99.90;;;;;;5048014;28;20371;-77
2022/06/20 11:29:33;;;;;;;9.35;6.57;;;22.60;99.90;;;;;;5063316;28;20036;-77
2022/06/20 11:32:18;;;;;;;11.57;5.65;;;22.50;99.90;;;;;;5063697;28;20048;-77
2022/06/20 11:34:59;;;;;;;12.55;6.80;;;22.40;99.90;;;;;;5078941;28;20069;-77
2022/06/20 11:37:38;;;;;;;9.02;6.32;;;22.20;99.90;;;;;;5066007;28;20033;-76
2022/06/20 11:40:29;;;;;;;14.35;6.93;;;22.20;99.90;;;;;;5063508;28;20037;-77
2022/06/20 11:43:11;;;;;;;10.60;5.82;;;22.30;99.90;;;;;;5013183;28;1495427;-77
2022/06/20 11:45:56;;;;;;;12.57;5.65;;;22.50;99.90;;;;;;5066145;28;20044;-77
2022/06/20 11:48:28;;;;;;;12.48;5.47;;;22.30;99.90;;;;;;5063059;28;20481;-77
2022/06/20 11:51:13;;;;;;;;;;;22.40;99.90;;;;;;5065751;28;20048;-77
2022/06/20 11:53:49;;;;;;;8.32;5.50;;;22.30;99.90;;;;;;5064104;28;19921;-77
2022/06/20 11:57:02;;;;;;;16.55;7.32;;;22.30;99.90;;;;;;5065705;28;20041;-77
2022/06/20 11:59:50;;;;;;;15.32;6.10;;;22.40;99.90;;;;;;5025520;28;20064;-77
2022/06/20 12:02:38;;;;;;;13.77;5.30;;;22.50;99.90;;;;;;5063421;28;20511;-77
2022/06/20 12:05:19;;;;;;;7.47;5.38;;;22.40;99.90;;;;;;5079949;28;20043;-77
2022/06/20 12:08:11;;;;;;;19.17;6.77;;;22.50;99.90;;;;;;5063139;28;20045;-77
2022/06/20 12:10:42;;;;;;;10.18;6.45;;;22.50;99.90;;;;;;5049023;28;20098;-77
2022/06/20 12:13:35;;;;;;;12.80;5.97;;;22.40;99.90;;;;;;5063518;28;20619;-77
2022/06/20 12:16:18;;;;;;;13.00;6.78;;;22.60;99.90;;;;;;5064842;28;20037;-77
2022/06/20 12:24:34;;;;;;;13.82;6.60;;;23.50;99.90;;;;;;5063992;28;20041;-77
2022/06/20 12:26:59;;;;;;;14.32;5.68;;;23.60;99.90;;;;;;5062082;28;20652;-77
2022/06/20 12:29:29;;;;;;;17.40;7.70;;;23.60;99.90;;;;;;5065061;28;20082;-77
2022/06/20 12:31:59;;;;;;;11.43;6.20;;;23.80;99.90;;;;;;5063043;28;20045;-77
2022/06/20 12:34:54;;;;;;;9.93;5.93;;;23.90;99.90;;;;;;5065912;28;20657;-77
2022/06/20 12:37:38;;;;;;;22.50;6.28;;;23.90;99.90;;;;;;5063728;28;20115;-77
2022/06/20 12:40:31;;;;;;;8.82;6.68;;;23.90;99.90;;;;;;5065654;28;20045;-77
2022/06/20 12:43:10;;;;;;;9.68;5.93;;;24.00;99.90;;;;;;5065659;28;20127;-77
2022/06/20 12:45:54;;;;;;;11.48;6.03;;;24.00;99.90;;;;;;5062805;28;20090;-77
2022/06/20 12:48:49;;;;;;;11.73;5.63;;;24.10;99.90;;;;;;5064034;28;20111;-77
2022/06/20 12:51:42;;;;;;;11.23;6.18;;;23.80;99.90;;;;;;5024156;28;20053;-77
2022/06/20 12:54:32;;;;;;;10.45;6.20;;;23.60;99.90;;;;;;5060283;28;20033;-77
2022/06/20 12:57:16;;;;;;;8.32;5.53;;;23.50;99.90;;;;;;5062236;28;20040;-77
2022/06/20 13:00:09;;;;;;;13.38;6.03;;;23.50;99.90;;;;;;5061278;28;20547;-77
2022/06/20 13:02:50;;;;;;;11.77;6.75;;;23.70;99.90;;;;;;5062325;28;20067;-77
2022/06/20 13:05:25;;;;;;;10.10;6.57;;;23.80;99.90;;;;;;5062921;28;20071;-77
2022/06/20 13:08:11;;;;;;;7.47;5.30;;;24.00;99.90;;;;;;5061797;28;20264;-77
2022/06/20 13:11:02;;;;;;;13.93;6.70;;;24.10;99.90;;;;;;5064936;28;20044;-77
2022/06/20 13:13:53;;;;;;;9.38;5.90;;;23.90;99.90;;;;;;5063234;28;20523;-77
2022/06/20 13:16:35;;;;;;;9.43;6.43;;;23.80;99.90;;;;;;5078942;28;20195;-77
2022/06/20 13:19:03;;;;;;;11.75;5.85;;;23.70;99.90;;;;;;5062635;28;20043;-77
2022/06/20 13:21:43;;;;;;;9.82;6.40;;;23.50;99.90;;;;;;5061250;28;20482;-77
2022/06/20 13:24:17;;;;;;;10.70;6.95;;;23.20;99.90;;;;;;5060765;28;20537;-77
2022/06/20 13:27:10;;;;;;;9.07;4.93;;;23.00;99.90;;;;;;5062806;28;20045;-77
2022/06/20 13:30:05;;;;;;;9.13;5.63;;;23.00;99.90;;;;;;5062599;28;20534;-77
2022/06/20 13:32:38;;;;;;;10.52;5.15;;;23.20;99.90;;;;;;5062479;28;20083;-77
2022/06/20 13:35:31;;;;;;;9.68;5.53;;;23.40;99.90;;;;;;5060533;28;20047;-77
2022/06/20 13:38:12;;;;;;;8.50;5.72;;;23.50;99.90;;;;;;5063354;28;20041;-77
2022/06/20 13:40:46;;;;;;;8.30;4.63;;;23.60;99.90;;;;;;5063561;28;20132;-77
2022/06/20 13:43:25;;;;;;;10.30;4.90;;;23.50;99.90;;;;;;5061845;28;20115;-77